sensor_id;sensor_type;location;lat;lon;timestamp;P1;durP1;ratioP1;P2;durP2;ratioP2
38940;SDS011;43236;47.208;7.518;2023-02-15T00:01:17;65.35;;;26.88;;
38940;SDS011;43236;47.208;7.518;2023-02-15T00:04:05;64.32;;;27.23;;
38940;SDS011;43236;47.208;7.518;2023-02-15T00:06:53;66.28;;;27.80;;
38940;SDS011;43236;47.208;7.518;2023-02-15T00:09:41;67.82;;;28.48;;
38940;SDS011;43236;47.208;7.518;2023-02-15T00:12:28;64.57;;;28.48;;
38940;SDS011;43236;47.208;7.518;2023-02-15T00:15:15;76.07;;;28.35;;
38940;SDS011;43236;47.208;7.518;2023-02-15T00:18:03;73.57;;;29.63;;
38940;SDS011;43236;47.208;7.518;2023-02-15T00:20:50;72.45;;;29.75;;
38940;SDS011;43236;47.208;7.518;2023-02-15T00:23:37;73.38;;;29.20;;
38940;SDS011;43236;47.208;7.518;2023-02-15T00:26:25;70.00;;;30.20;;
38940;SDS011;43236;47.208;7.518;2023-02-15T00:29:13;68.43;;;29.67;;
38940;SDS011;43236;47.208;7.518;2023-02-15T00:32:01;56.47;;;25.95;;
38940;SDS011;43236;47.208;7.518;2023-02-15T00:34:48;63.78;;;27.10;;
38940;SDS011;43236;47.208;7.518;2023-02-15T00:37:35;67.00;;;27.60;;
38940;SDS011;43236;47.208;7.518;2023-02-15T00:40:22;64.30;;;28.42;;
38940;SDS011;43236;47.208;7.518;2023-02-15T00:43:11;66.40;;;28.00;;
38940;SDS011;43236;47.208;7.518;2023-02-15T00:45:58;59.22;;;25.92;;
38940;SDS011;43236;47.208;7.518;2023-02-15T00:48:45;60.60;;;26.42;;
38940;SDS011;43236;47.208;7.518;2023-02-15T00:51:32;61.75;;;25.83;;
38940;SDS011;43236;47.208;7.518;2023-02-15T00:54:20;63.80;;;26.45;;
38940;SDS011;43236;47.208;7.518;2023-02-15T00:57:07;64.70;;;26.80;;
38940;SDS011;43236;47.208;7.518;2023-02-15T00:59:55;47.33;;;22.95;;
38940;SDS011;43236;47.208;7.518;2023-02-15T01:02:42;39.92;;;21.80;;
38940;SDS011;43236;47.208;7.518;2023-02-15T01:05:30;47.83;;;22.08;;
38940;SDS011;43236;47.208;7.518;2023-02-15T01:08:17;49.55;;;22.85;;
38940;SDS011;43236;47.208;7.518;2023-02-15T01:11:05;41.97;;;20.52;;
38940;SDS011;43236;47.208;7.518;2023-02-15T01:13:54;43.00;;;21.15;;
38940;SDS011;43236;47.208;7.518;2023-02-15T01:16:43;47.15;;;22.23;;
38940;SDS011;43236;47.208;7.518;2023-02-15T01:19:30;44.70;;;22.33;;
38940;SDS011;43236;47.208;7.518;2023-02-15T01:22:17;46.60;;;22.05;;
38940;SDS011;43236;47.208;7.518;2023-02-15T01:25:05;49.17;;;22.83;;
38940;SDS011;43236;47.208;7.518;2023-02-15T01:27:52;48.28;;;23.20;;
38940;SDS011;43236;47.208;7.518;2023-02-15T01:30:39;44.28;;;21.48;;
38940;SDS011;43236;47.208;7.518;2023-02-15T01:33:28;44.92;;;22.27;;
38940;SDS011;43236;47.208;7.518;2023-02-15T01:36:15;48.72;;;23.00;;
38940;SDS011;43236;47.208;7.518;2023-02-15T01:39:03;51.10;;;22.77;;
38940;SDS011;43236;47.208;7.518;2023-02-15T01:41:50;55.22;;;24.77;;
38940;SDS011;43236;47.208;7.518;2023-02-15T01:44:45;54.25;;;23.95;;
38940;SDS011;43236;47.208;7.518;2023-02-15T01:47:35;50.05;;;24.27;;
38940;SDS011;43236;47.208;7.518;2023-02-15T01:50:27;48.05;;;23.38;;
38940;SDS011;43236;47.208;7.518;2023-02-15T01:53:18;55.92;;;23.50;;
38940;SDS011;43236;47.208;7.518;2023-02-15T01:56:11;54.15;;;24.38;;
38940;SDS011;43236;47.208;7.518;2023-02-15T01:59:03;55.10;;;26.67;;
38940;SDS011;43236;47.208;7.518;2023-02-15T02:01:53;58.28;;;26.08;;
38940;SDS011;43236;47.208;7.518;2023-02-15T02:04:45;47.75;;;23.60;;
38940;SDS011;43236;47.208;7.518;2023-02-15T02:07:38;52.80;;;25.23;;
38940;SDS011;43236;47.208;7.518;2023-02-15T02:10:27;48.67;;;24.90;;
38940;SDS011;43236;47.208;7.518;2023-02-15T02:13:15;53.50;;;25.23;;
38940;SDS011;43236;47.208;7.518;2023-02-15T02:16:04;54.42;;;25.10;;
38940;SDS011;43236;47.208;7.518;2023-02-15T02:19:05;70.95;;;28.10;;
38940;SDS011;43236;47.208;7.518;2023-02-15T02:22:25;71.70;;;28.33;;
38940;SDS011;43236;47.208;7.518;2023-02-15T02:25:48;70.55;;;28.98;;
38940;SDS011;43236;47.208;7.518;2023-02-15T02:29:14;79.47;;;30.20;;
38940;SDS011;43236;47.208;7.518;2023-02-15T02:35:46;78.68;;;28.92;;
38940;SDS011;43236;47.208;7.518;2023-02-15T02:38:42;71.70;;;29.40;;
38940;SDS011;43236;47.208;7.518;2023-02-15T02:41:38;63.75;;;26.90;;
38940;SDS011;43236;47.208;7.518;2023-02-15T02:44:31;77.90;;;27.27;;
38940;SDS011;43236;47.208;7.518;2023-02-15T02:47:29;81.03;;;26.75;;
38940;SDS011;43236;47.208;7.518;2023-02-15T02:50:23;75.18;;;26.83;;
38940;SDS011;43236;47.208;7.518;2023-02-15T02:53:12;74.65;;;25.67;;
38940;SDS011;43236;47.208;7.518;2023-02-15T02:56:01;74.97;;;28.00;;
38940;SDS011;43236;47.208;7.518;2023-02-15T02:58:54;75.25;;;28.25;;
38940;SDS011;43236;47.208;7.518;2023-02-15T03:01:45;79.20;;;27.38;;
38940;SDS011;43236;47.208;7.518;2023-02-15T03:04:39;84.53;;;27.35;;
38940;SDS011;43236;47.208;7.518;2023-02-15T03:07:33;68.75;;;29.40;;
38940;SDS011;43236;47.208;7.518;2023-02-15T03:10:22;85.63;;;29.17;;
38940;SDS011;43236;47.208;7.518;2023-02-15T03:13:10;74.60;;;26.92;;
38940;SDS011;43236;47.208;7.518;2023-02-15T03:15:57;103.10;;;29.73;;
38940;SDS011;43236;47.208;7.518;2023-02-15T03:19:06;89.88;;;28.02;;
38940;SDS011;43236;47.208;7.518;2023-02-15T03:21:56;80.07;;;30.10;;
38940;SDS011;43236;47.208;7.518;2023-02-15T03:24:56;94.30;;;27.92;;
38940;SDS011;43236;47.208;7.518;2023-02-15T03:27:47;77.32;;;28.65;;
38940;SDS011;43236;47.208;7.518;2023-02-15T03:30:36;68.88;;;28.67;;
38940;SDS011;43236;47.208;7.518;2023-02-15T03:33:28;72.03;;;26.88;;
38940;SDS011;43236;47.208;7.518;2023-02-15T03:36:17;91.30;;;28.08;;
38940;SDS011;43236;47.208;7.518;2023-02-15T03:39:10;68.82;;;26.85;;
38940;SDS011;43236;47.208;7.518;2023-02-15T03:42:07;84.80;;;25.80;;
38940;SDS011;43236;47.208;7.518;2023-02-15T03:45:02;62.88;;;26.17;;
38940;SDS011;43236;47.208;7.518;2023-02-15T03:47:52;70.10;;;25.77;;
38940;SDS011;43236;47.208;7.518;2023-02-15T03:50:41;85.25;;;27.13;;
38940;SDS011;43236;47.208;7.518;2023-02-15T03:53:45;69.88;;;27.10;;
38940;SDS011;43236;47.208;7.518;2023-02-15T03:56:35;69.07;;;27.30;;
38940;SDS011;43236;47.208;7.518;2023-02-15T03:59:25;67.35;;;28.42;;
38940;SDS011;43236;47.208;7.518;2023-02-15T04:02:30;84.20;;;27.80;;
38940;SDS011;43236;47.208;7.518;2023-02-15T04:05:24;78.53;;;27.10;;
38940;SDS011;43236;47.208;7.518;2023-02-15T04:08:12;86.78;;;28.13;;
38940;SDS011;43236;47.208;7.518;2023-02-15T04:10:59;63.80;;;26.77;;
38940;SDS011;43236;47.208;7.518;2023-02-15T04:13:45;75.88;;;26.73;;
38940;SDS011;43236;47.208;7.518;2023-02-15T04:16:34;73.78;;;27.80;;
38940;SDS011;43236;47.208;7.518;2023-02-15T04:19:20;80.28;;;26.45;;
38940;SDS011;43236;47.208;7.518;2023-02-15T04:25:29;57.78;;;25.50;;
38940;SDS011;43236;47.208;7.518;2023-02-15T04:28:16;85.03;;;23.75;;
38940;SDS011;43236;47.208;7.518;2023-02-15T04:31:03;84.75;;;25.98;;
38940;SDS011;43236;47.208;7.518;2023-02-15T04:33:54;85.10;;;27.27;;
38940;SDS011;43236;47.208;7.518;2023-02-15T04:36:41;69.07;;;24.60;;
38940;SDS011;43236;47.208;7.518;2023-02-15T04:39:29;60.53;;;23.92;;
38940;SDS011;43236;47.208;7.518;2023-02-15T04:42:17;80.03;;;24.90;;
38940;SDS011;43236;47.208;7.518;2023-02-15T04:45:04;71.22;;;25.25;;
38940;SDS011;43236;47.208;7.518;2023-02-15T04:47:52;73.10;;;25.23;;
38940;SDS011;43236;47.208;7.518;2023-02-15T04:50:40;86.65;;;25.50;;
38940;SDS011;43236;47.208;7.518;2023-02-15T04:53:27;87.03;;;27.30;;
38940;SDS011;43236;47.208;7.518;2023-02-15T04:56:14;76.35;;;26.73;;
38940;SDS011;43236;47.208;7.518;2023-02-15T04:59:01;81.68;;;27.92;;
38940;SDS011;43236;47.208;7.518;2023-02-15T05:01:48;81.28;;;27.77;;
38940;SDS011;43236;47.208;7.518;2023-02-15T05:04:35;83.30;;;26.40;;
38940;SDS011;43236;47.208;7.518;2023-02-15T05:07:24;93.90;;;28.67;;
38940;SDS011;43236;47.208;7.518;2023-02-15T05:10:11;75.70;;;27.85;;
38940;SDS011;43236;47.208;7.518;2023-02-15T05:12:58;90.10;;;26.98;;
38940;SDS011;43236;47.208;7.518;2023-02-15T05:15:46;76.03;;;28.65;;
38940;SDS011;43236;47.208;7.518;2023-02-15T05:18:35;70.78;;;28.25;;
38940;SDS011;43236;47.208;7.518;2023-02-15T05:21:22;89.50;;;29.02;;
38940;SDS011;43236;47.208;7.518;2023-02-15T05:24:10;63.13;;;29.83;;
38940;SDS011;43236;47.208;7.518;2023-02-15T05:27:15;70.68;;;31.55;;
38940;SDS011;43236;47.208;7.518;2023-02-15T05:33:06;75.88;;;27.95;;
38940;SDS011;43236;47.208;7.518;2023-02-15T05:35:53;75.28;;;28.48;;
38940;SDS011;43236;47.208;7.518;2023-02-15T05:38:40;92.47;;;31.05;;
38940;SDS011;43236;47.208;7.518;2023-02-15T05:41:29;69.53;;;29.13;;
38940;SDS011;43236;47.208;7.518;2023-02-15T05:44:16;75.80;;;28.85;;
38940;SDS011;43236;47.208;7.518;2023-02-15T05:47:03;83.88;;;30.42;;
38940;SDS011;43236;47.208;7.518;2023-02-15T05:49:52;71.75;;;27.92;;
38940;SDS011;43236;47.208;7.518;2023-02-15T05:52:39;65.38;;;27.33;;
38940;SDS011;43236;47.208;7.518;2023-02-15T05:55:26;84.82;;;28.25;;
38940;SDS011;43236;47.208;7.518;2023-02-15T05:58:14;102.95;;;28.05;;
38940;SDS011;43236;47.208;7.518;2023-02-15T06:01:06;74.30;;;28.10;;
38940;SDS011;43236;47.208;7.518;2023-02-15T06:03:54;70.35;;;27.70;;
38940;SDS011;43236;47.208;7.518;2023-02-15T06:06:42;83.20;;;28.02;;
38940;SDS011;43236;47.208;7.518;2023-02-15T06:09:29;99.18;;;26.58;;
38940;SDS011;43236;47.208;7.518;2023-02-15T06:12:16;77.78;;;27.50;;
38940;SDS011;43236;47.208;7.518;2023-02-15T06:15:04;79.60;;;26.83;;
38940;SDS011;43236;47.208;7.518;2023-02-15T06:17:52;74.55;;;27.42;;
38940;SDS011;43236;47.208;7.518;2023-02-15T06:20:39;76.95;;;26.83;;
38940;SDS011;43236;47.208;7.518;2023-02-15T06:23:26;79.30;;;26.98;;
38940;SDS011;43236;47.208;7.518;2023-02-15T06:26:13;63.42;;;26.67;;
38940;SDS011;43236;47.208;7.518;2023-02-15T06:29:00;60.30;;;26.80;;
38940;SDS011;43236;47.208;7.518;2023-02-15T06:31:49;74.32;;;25.90;;
38940;SDS011;43236;47.208;7.518;2023-02-15T06:34:36;64.22;;;25.85;;
38940;SDS011;43236;47.208;7.518;2023-02-15T06:37:23;70.72;;;25.45;;
38940;SDS011;43236;47.208;7.518;2023-02-15T06:40:10;64.18;;;26.33;;
38940;SDS011;43236;47.208;7.518;2023-02-15T06:42:58;59.30;;;24.60;;
38940;SDS011;43236;47.208;7.518;2023-02-15T06:45:45;64.82;;;25.70;;
38940;SDS011;43236;47.208;7.518;2023-02-15T06:48:33;61.78;;;26.05;;
38940;SDS011;43236;47.208;7.518;2023-02-15T06:51:20;77.95;;;25.27;;
38940;SDS011;43236;47.208;7.518;2023-02-15T06:54:07;58.95;;;24.83;;
38940;SDS011;43236;47.208;7.518;2023-02-15T06:56:55;62.65;;;26.25;;
38940;SDS011;43236;47.208;7.518;2023-02-15T06:59:42;63.17;;;25.00;;
38940;SDS011;43236;47.208;7.518;2023-02-15T07:02:29;65.47;;;25.10;;
38940;SDS011;43236;47.208;7.518;2023-02-15T07:05:17;69.70;;;26.35;;
38940;SDS011;43236;47.208;7.518;2023-02-15T07:08:05;64.38;;;25.52;;
38940;SDS011;43236;47.208;7.518;2023-02-15T07:10:53;79.53;;;25.02;;
38940;SDS011;43236;47.208;7.518;2023-02-15T07:14:00;68.43;;;27.20;;
38940;SDS011;43236;47.208;7.518;2023-02-15T07:16:48;87.38;;;24.60;;
38940;SDS011;43236;47.208;7.518;2023-02-15T07:19:35;64.95;;;26.45;;
38940;SDS011;43236;47.208;7.518;2023-02-15T07:22:23;93.95;;;25.83;;
38940;SDS011;43236;47.208;7.518;2023-02-15T07:25:10;70.80;;;25.67;;
38940;SDS011;43236;47.208;7.518;2023-02-15T07:28:00;72.03;;;26.35;;
38940;SDS011;43236;47.208;7.518;2023-02-15T07:30:49;68.72;;;26.60;;
38940;SDS011;43236;47.208;7.518;2023-02-15T07:33:36;71.93;;;26.52;;
38940;SDS011;43236;47.208;7.518;2023-02-15T07:36:23;68.07;;;26.25;;
38940;SDS011;43236;47.208;7.518;2023-02-15T07:39:11;81.38;;;24.20;;
38940;SDS011;43236;47.208;7.518;2023-02-15T07:41:59;61.70;;;26.77;;
38940;SDS011;43236;47.208;7.518;2023-02-15T07:44:46;65.40;;;26.73;;
38940;SDS011;43236;47.208;7.518;2023-02-15T07:47:33;77.55;;;26.08;;
38940;SDS011;43236;47.208;7.518;2023-02-15T07:50:21;78.45;;;25.08;;
38940;SDS011;43236;47.208;7.518;2023-02-15T07:53:08;84.38;;;23.65;;
38940;SDS011;43236;47.208;7.518;2023-02-15T07:55:59;80.95;;;26.52;;
38940;SDS011;43236;47.208;7.518;2023-02-15T07:58:46;83.80;;;25.30;;
38940;SDS011;43236;47.208;7.518;2023-02-15T08:01:41;70.75;;;26.15;;
38940;SDS011;43236;47.208;7.518;2023-02-15T08:04:28;81.40;;;25.70;;
38940;SDS011;43236;47.208;7.518;2023-02-15T08:07:15;94.40;;;27.13;;
38940;SDS011;43236;47.208;7.518;2023-02-15T08:10:02;74.95;;;25.40;;
38940;SDS011;43236;47.208;7.518;2023-02-15T08:12:51;64.00;;;23.55;;
38940;SDS011;43236;47.208;7.518;2023-02-15T08:15:38;66.88;;;25.33;;
38940;SDS011;43236;47.208;7.518;2023-02-15T08:18:25;65.65;;;26.55;;
38940;SDS011;43236;47.208;7.518;2023-02-15T08:21:12;58.35;;;25.13;;
38940;SDS011;43236;47.208;7.518;2023-02-15T08:24:00;54.88;;;24.77;;
38940;SDS011;43236;47.208;7.518;2023-02-15T08:26:47;62.83;;;24.73;;
38940;SDS011;43236;47.208;7.518;2023-02-15T08:29:37;80.97;;;22.10;;
38940;SDS011;43236;47.208;7.518;2023-02-15T08:32:24;48.92;;;22.77;;
38940;SDS011;43236;47.208;7.518;2023-02-15T08:35:11;52.80;;;23.33;;
38940;SDS011;43236;47.208;7.518;2023-02-15T08:37:58;56.25;;;22.17;;
38940;SDS011;43236;47.208;7.518;2023-02-15T08:40:45;67.60;;;22.33;;
38940;SDS011;43236;47.208;7.518;2023-02-15T08:43:32;52.40;;;23.63;;
38940;SDS011;43236;47.208;7.518;2023-02-15T08:46:21;48.92;;;23.77;;
38940;SDS011;43236;47.208;7.518;2023-02-15T08:49:10;54.03;;;20.15;;
38940;SDS011;43236;47.208;7.518;2023-02-15T08:51:59;48.65;;;20.83;;
38940;SDS011;43236;47.208;7.518;2023-02-15T08:54:46;73.15;;;22.55;;
38940;SDS011;43236;47.208;7.518;2023-02-15T08:57:33;58.88;;;23.17;;
38940;SDS011;43236;47.208;7.518;2023-02-15T09:00:21;66.75;;;20.40;;
38940;SDS011;43236;47.208;7.518;2023-02-15T09:03:10;58.65;;;22.05;;
38940;SDS011;43236;47.208;7.518;2023-02-15T09:05:57;54.70;;;21.70;;
38940;SDS011;43236;47.208;7.518;2023-02-15T09:08:46;50.40;;;22.23;;
38940;SDS011;43236;47.208;7.518;2023-02-15T09:11:34;46.67;;;23.00;;
38940;SDS011;43236;47.208;7.518;2023-02-15T09:14:23;58.50;;;22.40;;
38940;SDS011;43236;47.208;7.518;2023-02-15T09:17:11;60.00;;;22.27;;
38940;SDS011;43236;47.208;7.518;2023-02-15T09:20:00;56.88;;;23.83;;
38940;SDS011;43236;47.208;7.518;2023-02-15T09:22:47;61.78;;;23.42;;
38940;SDS011;43236;47.208;7.518;2023-02-15T09:25:34;54.92;;;23.92;;
38940;SDS011;43236;47.208;7.518;2023-02-15T09:28:21;68.82;;;22.25;;
38940;SDS011;43236;47.208;7.518;2023-02-15T09:31:09;65.32;;;22.65;;
38940;SDS011;43236;47.208;7.518;2023-02-15T09:33:58;60.00;;;24.13;;
38940;SDS011;43236;47.208;7.518;2023-02-15T09:36:48;58.60;;;23.45;;
38940;SDS011;43236;47.208;7.518;2023-02-15T09:39:36;56.35;;;23.05;;
38940;SDS011;43236;47.208;7.518;2023-02-15T09:42:35;54.08;;;24.15;;
38940;SDS011;43236;47.208;7.518;2023-02-15T09:45:48;52.78;;;24.17;;
38940;SDS011;43236;47.208;7.518;2023-02-15T09:48:45;47.15;;;23.40;;
38940;SDS011;43236;47.208;7.518;2023-02-15T09:51:43;59.22;;;22.65;;
38940;SDS011;43236;47.208;7.518;2023-02-15T09:54:58;56.35;;;24.58;;
38940;SDS011;43236;47.208;7.518;2023-02-15T09:57:58;47.63;;;21.42;;
38940;SDS011;43236;47.208;7.518;2023-02-15T10:00:55;47.58;;;22.50;;
38940;SDS011;43236;47.208;7.518;2023-02-15T10:03:52;48.35;;;21.73;;
38940;SDS011;43236;47.208;7.518;2023-02-15T10:06:49;40.83;;;20.88;;
38940;SDS011;43236;47.208;7.518;2023-02-15T10:09:53;40.72;;;21.00;;
38940;SDS011;43236;47.208;7.518;2023-02-15T10:13:08;42.92;;;21.13;;
38940;SDS011;43236;47.208;7.518;2023-02-15T10:16:10;44.88;;;20.35;;
38940;SDS011;43236;47.208;7.518;2023-02-15T10:19:05;34.08;;;18.42;;
38940;SDS011;43236;47.208;7.518;2023-02-15T10:22:02;46.20;;;20.17;;
38940;SDS011;43236;47.208;7.518;2023-02-15T10:25:01;39.83;;;19.17;;
38940;SDS011;43236;47.208;7.518;2023-02-15T10:28:03;38.30;;;20.80;;
38940;SDS011;43236;47.208;7.518;2023-02-15T10:30:53;39.67;;;19.60;;
38940;SDS011;43236;47.208;7.518;2023-02-15T10:33:47;41.33;;;19.95;;
38940;SDS011;43236;47.208;7.518;2023-02-15T10:36:41;41.13;;;19.88;;
38940;SDS011;43236;47.208;7.518;2023-02-15T10:39:51;40.00;;;18.20;;
38940;SDS011;43236;47.208;7.518;2023-02-15T10:42:54;39.85;;;20.63;;
38940;SDS011;43236;47.208;7.518;2023-02-15T10:45:58;39.80;;;20.67;;
38940;SDS011;43236;47.208;7.518;2023-02-15T10:48:59;40.33;;;21.27;;
38940;SDS011;43236;47.208;7.518;2023-02-15T10:52:07;39.15;;;20.23;;
38940;SDS011;43236;47.208;7.518;2023-02-15T10:55:07;43.97;;;20.85;;
38940;SDS011;43236;47.208;7.518;2023-02-15T10:58:05;39.83;;;21.13;;
38940;SDS011;43236;47.208;7.518;2023-02-15T11:00:58;43.63;;;20.75;;
38940;SDS011;43236;47.208;7.518;2023-02-15T11:04:00;38.83;;;19.83;;
38940;SDS011;43236;47.208;7.518;2023-02-15T11:07:03;39.90;;;21.48;;
38940;SDS011;43236;47.208;7.518;2023-02-15T11:09:59;40.45;;;20.77;;
38940;SDS011;43236;47.208;7.518;2023-02-15T11:12:54;47.55;;;23.27;;
38940;SDS011;43236;47.208;7.518;2023-02-15T11:15:47;51.25;;;23.42;;
38940;SDS011;43236;47.208;7.518;2023-02-15T11:18:38;45.90;;;23.52;;
38940;SDS011;43236;47.208;7.518;2023-02-15T11:21:29;49.13;;;23.48;;
38940;SDS011;43236;47.208;7.518;2023-02-15T11:24:24;57.83;;;28.90;;
38940;SDS011;43236;47.208;7.518;2023-02-15T11:27:16;50.30;;;24.65;;
38940;SDS011;43236;47.208;7.518;2023-02-15T11:30:09;52.20;;;25.67;;
38940;SDS011;43236;47.208;7.518;2023-02-15T11:33:02;57.65;;;26.85;;
38940;SDS011;43236;47.208;7.518;2023-02-15T11:35:53;49.83;;;26.58;;
38940;SDS011;43236;47.208;7.518;2023-02-15T11:38:47;56.13;;;27.58;;
38940;SDS011;43236;47.208;7.518;2023-02-15T11:41:39;54.80;;;27.40;;
38940;SDS011;43236;47.208;7.518;2023-02-15T11:44:30;60.63;;;27.80;;
38940;SDS011;43236;47.208;7.518;2023-02-15T11:47:21;59.70;;;27.77;;
38940;SDS011;43236;47.208;7.518;2023-02-15T11:53:02;59.88;;;28.38;;
38940;SDS011;43236;47.208;7.518;2023-02-15T11:55:55;57.22;;;28.25;;
38940;SDS011;43236;47.208;7.518;2023-02-15T11:58:43;59.63;;;28.90;;
38940;SDS011;43236;47.208;7.518;2023-02-15T12:01:34;62.45;;;30.75;;
38940;SDS011;43236;47.208;7.518;2023-02-15T12:04:25;65.53;;;30.73;;
38940;SDS011;43236;47.208;7.518;2023-02-15T12:07:19;63.78;;;30.90;;
38940;SDS011;43236;47.208;7.518;2023-02-15T12:10:15;61.70;;;30.98;;
38940;SDS011;43236;47.208;7.518;2023-02-15T12:13:10;69.68;;;32.00;;
38940;SDS011;43236;47.208;7.518;2023-02-15T12:15:59;68.25;;;30.63;;
38940;SDS011;43236;47.208;7.518;2023-02-15T12:18:52;60.45;;;30.63;;
38940;SDS011;43236;47.208;7.518;2023-02-15T12:21:42;63.17;;;30.33;;
38940;SDS011;43236;47.208;7.518;2023-02-15T12:24:32;57.42;;;30.98;;
38940;SDS011;43236;47.208;7.518;2023-02-15T12:27:23;61.90;;;32.83;;
38940;SDS011;43236;47.208;7.518;2023-02-15T12:30:15;68.93;;;32.28;;
38940;SDS011;43236;47.208;7.518;2023-02-15T12:33:13;70.53;;;33.42;;
38940;SDS011;43236;47.208;7.518;2023-02-15T12:36:11;67.40;;;33.97;;
38940;SDS011;43236;47.208;7.518;2023-02-15T12:39:03;72.13;;;32.65;;
38940;SDS011;43236;47.208;7.518;2023-02-15T12:42:04;63.20;;;31.67;;
38940;SDS011;43236;47.208;7.518;2023-02-15T12:45:01;64.03;;;33.20;;
38940;SDS011;43236;47.208;7.518;2023-02-15T12:48:07;62.40;;;32.65;;
38940;SDS011;43236;47.208;7.518;2023-02-15T12:50:56;66.10;;;32.08;;
38940;SDS011;43236;47.208;7.518;2023-02-15T12:53:54;69.53;;;32.58;;
38940;SDS011;43236;47.208;7.518;2023-02-15T12:56:41;60.85;;;31.38;;
38940;SDS011;43236;47.208;7.518;2023-02-15T12:59:29;64.70;;;31.52;;
38940;SDS011;43236;47.208;7.518;2023-02-15T13:02:19;66.47;;;31.40;;
38940;SDS011;43236;47.208;7.518;2023-02-15T13:05:18;60.58;;;30.35;;
38940;SDS011;43236;47.208;7.518;2023-02-15T13:08:10;65.03;;;30.42;;
38940;SDS011;43236;47.208;7.518;2023-02-15T13:11:03;60.13;;;29.33;;
38940;SDS011;43236;47.208;7.518;2023-02-15T13:13:55;61.17;;;28.85;;
38940;SDS011;43236;47.208;7.518;2023-02-15T13:16:46;58.38;;;27.27;;
38940;SDS011;43236;47.208;7.518;2023-02-15T13:19:35;57.38;;;27.35;;
38940;SDS011;43236;47.208;7.518;2023-02-15T13:22:28;60.45;;;27.10;;
38940;SDS011;43236;47.208;7.518;2023-02-15T13:25:25;52.78;;;26.35;;
38940;SDS011;43236;47.208;7.518;2023-02-15T13:28:16;59.97;;;27.25;;
38940;SDS011;43236;47.208;7.518;2023-02-15T13:31:05;59.75;;;28.40;;
38940;SDS011;43236;47.208;7.518;2023-02-15T13:34:02;65.30;;;28.60;;
38940;SDS011;43236;47.208;7.518;2023-02-15T13:36:57;59.60;;;27.02;;
38940;SDS011;43236;47.208;7.518;2023-02-15T13:39:51;54.67;;;25.38;;
38940;SDS011;43236;47.208;7.518;2023-02-15T13:42:45;58.60;;;26.67;;
38940;SDS011;43236;47.208;7.518;2023-02-15T13:45:38;57.08;;;26.73;;
38940;SDS011;43236;47.208;7.518;2023-02-15T13:48:32;57.85;;;25.67;;
38940;SDS011;43236;47.208;7.518;2023-02-15T13:51:30;58.88;;;25.73;;
38940;SDS011;43236;47.208;7.518;2023-02-15T13:54:36;54.50;;;25.02;;
38940;SDS011;43236;47.208;7.518;2023-02-15T13:57:40;51.38;;;24.90;;
38940;SDS011;43236;47.208;7.518;2023-02-15T14:00:44;59.15;;;26.67;;
38940;SDS011;43236;47.208;7.518;2023-02-15T14:06:57;55.30;;;25.02;;
38940;SDS011;43236;47.208;7.518;2023-02-15T14:10:21;53.83;;;23.90;;
38940;SDS011;43236;47.208;7.518;2023-02-15T14:16:37;56.88;;;25.70;;
38940;SDS011;43236;47.208;7.518;2023-02-15T14:19:33;55.75;;;25.33;;
38940;SDS011;43236;47.208;7.518;2023-02-15T14:22:29;58.85;;;27.58;;
38940;SDS011;43236;47.208;7.518;2023-02-15T14:25:24;50.05;;;25.60;;
38940;SDS011;43236;47.208;7.518;2023-02-15T14:28:16;59.47;;;28.00;;
38940;SDS011;43236;47.208;7.518;2023-02-15T14:31:09;53.25;;;27.50;;
38940;SDS011;43236;47.208;7.518;2023-02-15T14:33:59;52.78;;;25.70;;
38940;SDS011;43236;47.208;7.518;2023-02-15T14:36:47;61.85;;;26.10;;
38940;SDS011;43236;47.208;7.518;2023-02-15T14:39:41;52.25;;;25.90;;
38940;SDS011;43236;47.208;7.518;2023-02-15T14:42:53;54.10;;;25.58;;
38940;SDS011;43236;47.208;7.518;2023-02-15T14:45:48;55.78;;;25.83;;
38940;SDS011;43236;47.208;7.518;2023-02-15T14:48:38;56.40;;;26.27;;
38940;SDS011;43236;47.208;7.518;2023-02-15T14:54:55;51.70;;;25.27;;
38940;SDS011;43236;47.208;7.518;2023-02-15T14:57:51;56.15;;;26.23;;
38940;SDS011;43236;47.208;7.518;2023-02-15T15:00:43;51.53;;;25.42;;
38940;SDS011;43236;47.208;7.518;2023-02-15T15:03:30;48.55;;;24.45;;
38940;SDS011;43236;47.208;7.518;2023-02-15T15:06:23;51.15;;;24.17;;
38940;SDS011;43236;47.208;7.518;2023-02-15T15:09:18;45.67;;;22.35;;
38940;SDS011;43236;47.208;7.518;2023-02-15T15:15:33;46.78;;;23.17;;
38940;SDS011;43236;47.208;7.518;2023-02-15T15:18:42;45.85;;;21.55;;
38940;SDS011;43236;47.208;7.518;2023-02-15T15:24:47;49.30;;;22.05;;
38940;SDS011;43236;47.208;7.518;2023-02-15T15:27:40;50.88;;;22.90;;
38940;SDS011;43236;47.208;7.518;2023-02-15T15:34:12;45.90;;;22.90;;
38940;SDS011;43236;47.208;7.518;2023-02-15T15:37:20;50.58;;;24.13;;
38940;SDS011;43236;47.208;7.518;2023-02-15T15:40:40;52.15;;;24.08;;
38940;SDS011;43236;47.208;7.518;2023-02-15T15:47:00;47.60;;;22.00;;
38940;SDS011;43236;47.208;7.518;2023-02-15T15:50:11;47.58;;;22.38;;
38940;SDS011;43236;47.208;7.518;2023-02-15T15:53:00;46.40;;;21.65;;
38940;SDS011;43236;47.208;7.518;2023-02-15T15:55:48;49.65;;;22.27;;
38940;SDS011;43236;47.208;7.518;2023-02-15T15:58:42;47.05;;;21.92;;
38940;SDS011;43236;47.208;7.518;2023-02-15T16:01:34;48.50;;;23.08;;
38940;SDS011;43236;47.208;7.518;2023-02-15T16:04:27;52.15;;;22.67;;
38940;SDS011;43236;47.208;7.518;2023-02-15T16:07:23;50.03;;;22.85;;
38940;SDS011;43236;47.208;7.518;2023-02-15T16:10:19;49.97;;;22.10;;
38940;SDS011;43236;47.208;7.518;2023-02-15T16:13:11;48.30;;;22.33;;
38940;SDS011;43236;47.208;7.518;2023-02-15T16:16:00;47.70;;;22.00;;
38940;SDS011;43236;47.208;7.518;2023-02-15T16:18:48;45.47;;;21.92;;
38940;SDS011;43236;47.208;7.518;2023-02-15T16:21:37;48.90;;;21.50;;
38940;SDS011;43236;47.208;7.518;2023-02-15T16:27:37;44.30;;;21.92;;
38940;SDS011;43236;47.208;7.518;2023-02-15T16:30:28;46.25;;;20.98;;
38940;SDS011;43236;47.208;7.518;2023-02-15T16:33:17;53.92;;;22.67;;
38940;SDS011;43236;47.208;7.518;2023-02-15T16:36:09;53.10;;;21.70;;
38940;SDS011;43236;47.208;7.518;2023-02-15T16:39:09;47.25;;;21.88;;
38940;SDS011;43236;47.208;7.518;2023-02-15T16:42:03;48.92;;;22.42;;
38940;SDS011;43236;47.208;7.518;2023-02-15T16:44:51;46.53;;;21.23;;
38940;SDS011;43236;47.208;7.518;2023-02-15T16:47:42;52.72;;;22.85;;
38940;SDS011;43236;47.208;7.518;2023-02-15T16:50:33;47.70;;;21.15;;
38940;SDS011;43236;47.208;7.518;2023-02-15T16:53:23;51.92;;;22.35;;
38940;SDS011;43236;47.208;7.518;2023-02-15T16:56:13;49.03;;;23.73;;
38940;SDS011;43236;47.208;7.518;2023-02-15T16:59:01;49.20;;;23.08;;
38940;SDS011;43236;47.208;7.518;2023-02-15T17:01:48;53.55;;;24.48;;
38940;SDS011;43236;47.208;7.518;2023-02-15T17:04:38;52.38;;;23.73;;
38940;SDS011;43236;47.208;7.518;2023-02-15T17:07:27;55.25;;;23.75;;
38940;SDS011;43236;47.208;7.518;2023-02-15T17:10:27;57.67;;;24.48;;
38940;SDS011;43236;47.208;7.518;2023-02-15T17:13:18;53.10;;;23.15;;
38940;SDS011;43236;47.208;7.518;2023-02-15T17:16:20;50.08;;;23.45;;
38940;SDS011;43236;47.208;7.518;2023-02-15T17:19:13;50.00;;;22.73;;
38940;SDS011;43236;47.208;7.518;2023-02-15T17:22:03;51.03;;;23.80;;
38940;SDS011;43236;47.208;7.518;2023-02-15T17:24:57;52.80;;;23.40;;